sensor_id;sensor_type;location;lat;lon;timestamp;P1;durP1;ratioP1;P2;durP2;ratioP2
20397;SDS011;10358;49.590;11.030;2022-12-05T00:00:28;32.43;;;17.63;;
20397;SDS011;10358;49.590;11.030;2022-12-05T00:02:54;29.83;;;17.30;;
20397;SDS011;10358;49.590;11.030;2022-12-05T00:05:19;31.67;;;17.23;;
20397;SDS011;10358;49.590;11.030;2022-12-05T00:07:45;34.63;;;17.80;;
20397;SDS011;10358;49.590;11.030;2022-12-05T00:10:11;32.03;;;16.90;;
20397;SDS011;10358;49.590;11.030;2022-12-05T00:12:37;33.53;;;18.57;;
20397;SDS011;10358;49.590;11.030;2022-12-05T00:15:03;33.77;;;18.03;;
20397;SDS011;10358;49.590;11.030;2022-12-05T00:17:30;31.30;;;17.97;;
20397;SDS011;10358;49.590;11.030;2022-12-05T00:19:56;34.07;;;18.77;;
20397;SDS011;10358;49.590;11.030;2022-12-05T00:22:21;35.03;;;18.70;;
20397;SDS011;10358;49.590;11.030;2022-12-05T00:24:47;35.27;;;18.20;;
20397;SDS011;10358;49.590;11.030;2022-12-05T00:27:12;35.57;;;18.53;;
20397;SDS011;10358;49.590;11.030;2022-12-05T00:29:38;33.33;;;17.37;;
20397;SDS011;10358;49.590;11.030;2022-12-05T00:32:03;33.10;;;18.67;;
20397;SDS011;10358;49.590;11.030;2022-12-05T00:34:29;34.87;;;17.97;;
20397;SDS011;10358;49.590;11.030;2022-12-05T00:36:55;30.67;;;18.27;;
20397;SDS011;10358;49.590;11.030;2022-12-05T00:39:20;32.60;;;17.53;;
20397;SDS011;10358;49.590;11.030;2022-12-05T00:41:46;38.27;;;18.33;;
20397;SDS011;10358;49.590;11.030;2022-12-05T00:44:12;41.47;;;19.40;;
20397;SDS011;10358;49.590;11.030;2022-12-05T00:46:37;34.73;;;18.93;;
20397;SDS011;10358;49.590;11.030;2022-12-05T00:49:04;30.23;;;18.23;;
20397;SDS011;10358;49.590;11.030;2022-12-05T00:51:32;35.73;;;18.73;;
20397;SDS011;10358;49.590;11.030;2022-12-05T00:54:00;37.77;;;18.53;;
20397;SDS011;10358;49.590;11.030;2022-12-05T00:56:28;37.93;;;18.00;;
20397;SDS011;10358;49.590;11.030;2022-12-05T00:58:55;34.23;;;18.20;;
20397;SDS011;10358;49.590;11.030;2022-12-05T01:01:23;32.53;;;17.83;;
20397;SDS011;10358;49.590;11.030;2022-12-05T01:03:52;35.43;;;17.57;;
20397;SDS011;10358;49.590;11.030;2022-12-05T01:06:19;36.00;;;18.80;;
20397;SDS011;10358;49.590;11.030;2022-12-05T01:08:45;35.70;;;19.50;;
20397;SDS011;10358;49.590;11.030;2022-12-05T01:11:13;32.87;;;18.67;;
20397;SDS011;10358;49.590;11.030;2022-12-05T01:13:42;38.43;;;19.00;;
20397;SDS011;10358;49.590;11.030;2022-12-05T01:16:19;35.47;;;19.03;;
20397;SDS011;10358;49.590;11.030;2022-12-05T01:18:49;37.23;;;19.97;;
20397;SDS011;10358;49.590;11.030;2022-12-05T01:21:15;39.33;;;19.10;;
20397;SDS011;10358;49.590;11.030;2022-12-05T01:23:41;34.87;;;20.00;;
20397;SDS011;10358;49.590;11.030;2022-12-05T01:26:07;37.60;;;20.13;;
20397;SDS011;10358;49.590;11.030;2022-12-05T01:28:34;36.67;;;18.90;;
20397;SDS011;10358;49.590;11.030;2022-12-05T01:31:03;40.50;;;19.00;;
20397;SDS011;10358;49.590;11.030;2022-12-05T01:33:31;38.67;;;19.13;;
20397;SDS011;10358;49.590;11.030;2022-12-05T01:35:57;39.10;;;20.83;;
20397;SDS011;10358;49.590;11.030;2022-12-05T01:38:22;40.43;;;20.00;;
20397;SDS011;10358;49.590;11.030;2022-12-05T01:40:48;39.67;;;20.60;;
20397;SDS011;10358;49.590;11.030;2022-12-05T01:43:15;36.80;;;19.47;;
20397;SDS011;10358;49.590;11.030;2022-12-05T01:45:42;38.77;;;20.07;;
20397;SDS011;10358;49.590;11.030;2022-12-05T01:48:15;39.37;;;19.73;;
20397;SDS011;10358;49.590;11.030;2022-12-05T01:50:44;36.50;;;18.67;;
20397;SDS011;10358;49.590;11.030;2022-12-05T01:53:11;38.83;;;19.10;;
20397;SDS011;10358;49.590;11.030;2022-12-05T01:55:37;37.53;;;18.87;;
20397;SDS011;10358;49.590;11.030;2022-12-05T01:58:04;37.97;;;19.37;;
20397;SDS011;10358;49.590;11.030;2022-12-05T02:00:32;35.40;;;18.47;;
20397;SDS011;10358;49.590;11.030;2022-12-05T02:02:58;36.40;;;19.03;;
20397;SDS011;10358;49.590;11.030;2022-12-05T02:05:33;35.37;;;18.70;;
20397;SDS011;10358;49.590;11.030;2022-12-05T02:08:02;37.53;;;19.13;;
20397;SDS011;10358;49.590;11.030;2022-12-05T02:10:38;36.20;;;19.63;;
20397;SDS011;10358;49.590;11.030;2022-12-05T02:13:11;41.33;;;19.67;;
20397;SDS011;10358;49.590;11.030;2022-12-05T02:15:45;40.23;;;20.10;;
20397;SDS011;10358;49.590;11.030;2022-12-05T02:18:26;38.90;;;19.57;;
20397;SDS011;10358;49.590;11.030;2022-12-05T02:23:55;41.60;;;21.27;;
20397;SDS011;10358;49.590;11.030;2022-12-05T02:26:51;40.63;;;21.17;;
20397;SDS011;10358;49.590;11.030;2022-12-05T02:32:35;41.67;;;20.20;;
20397;SDS011;10358;49.590;11.030;2022-12-05T02:43:11;44.90;;;22.13;;
20397;SDS011;10358;49.590;11.030;2022-12-05T02:45:38;51.37;;;22.87;;
20397;SDS011;10358;49.590;11.030;2022-12-05T02:48:05;43.70;;;22.80;;
20397;SDS011;10358;49.590;11.030;2022-12-05T02:50:33;45.40;;;23.27;;
20397;SDS011;10358;49.590;11.030;2022-12-05T02:53:06;45.53;;;22.43;;
20397;SDS011;10358;49.590;11.030;2022-12-05T02:55:34;49.27;;;22.83;;
20397;SDS011;10358;49.590;11.030;2022-12-05T02:58:05;49.33;;;21.97;;
20397;SDS011;10358;49.590;11.030;2022-12-05T03:00:36;50.23;;;22.00;;
20397;SDS011;10358;49.590;11.030;2022-12-05T03:03:05;43.97;;;21.30;;
20397;SDS011;10358;49.590;11.030;2022-12-05T03:09:00;42.33;;;19.53;;
20397;SDS011;10358;49.590;11.030;2022-12-05T03:12:09;40.33;;;20.23;;
20397;SDS011;10358;49.590;11.030;2022-12-05T03:14:28;43.93;;;19.50;;
20397;SDS011;10358;49.590;11.030;2022-12-05T03:16:59;40.83;;;19.70;;
20397;SDS011;10358;49.590;11.030;2022-12-05T03:19:49;39.40;;;18.83;;
20397;SDS011;10358;49.590;11.030;2022-12-05T03:25:05;34.17;;;16.50;;
20397;SDS011;10358;49.590;11.030;2022-12-05T03:27:44;32.43;;;16.67;;
20397;SDS011;10358;49.590;11.030;2022-12-05T03:30:21;32.47;;;15.60;;
20397;SDS011;10358;49.590;11.030;2022-12-05T03:32:53;29.70;;;15.37;;
20397;SDS011;10358;49.590;11.030;2022-12-05T03:38:18;35.83;;;16.57;;
20397;SDS011;10358;49.590;11.030;2022-12-05T03:40:54;33.80;;;15.17;;
20397;SDS011;10358;49.590;11.030;2022-12-05T03:46:40;29.07;;;15.13;;
20397;SDS011;10358;49.590;11.030;2022-12-05T03:49:28;31.33;;;14.47;;
20397;SDS011;10358;49.590;11.030;2022-12-05T03:52:04;31.00;;;15.03;;
20397;SDS011;10358;49.590;11.030;2022-12-05T03:54:39;28.83;;;14.67;;
20397;SDS011;10358;49.590;11.030;2022-12-05T03:57:24;30.63;;;15.63;;
20397;SDS011;10358;49.590;11.030;2022-12-05T04:02:25;28.27;;;15.20;;
20397;SDS011;10358;49.590;11.030;2022-12-05T04:05:07;26.43;;;14.23;;
20397;SDS011;10358;49.590;11.030;2022-12-05T04:07:38;29.50;;;15.43;;
20397;SDS011;10358;49.590;11.030;2022-12-05T04:10:11;30.27;;;15.27;;
20397;SDS011;10358;49.590;11.030;2022-12-05T04:12:42;27.03;;;14.53;;
20397;SDS011;10358;49.590;11.030;2022-12-05T04:15:18;29.23;;;16.13;;
20397;SDS011;10358;49.590;11.030;2022-12-05T04:17:58;27.20;;;15.00;;
20397;SDS011;10358;49.590;11.030;2022-12-05T04:20:29;29.13;;;15.23;;
20397;SDS011;10358;49.590;11.030;2022-12-05T04:23:18;24.43;;;14.27;;
20397;SDS011;10358;49.590;11.030;2022-12-05T04:25:50;25.23;;;14.63;;
20397;SDS011;10358;49.590;11.030;2022-12-05T04:28:29;24.07;;;13.87;;
20397;SDS011;10358;49.590;11.030;2022-12-05T04:31:07;21.97;;;13.40;;
20397;SDS011;10358;49.590;11.030;2022-12-05T04:33:50;25.50;;;14.83;;
20397;SDS011;10358;49.590;11.030;2022-12-05T04:38:52;22.63;;;13.63;;
20397;SDS011;10358;49.590;11.030;2022-12-05T04:41:25;22.03;;;13.40;;
20397;SDS011;10358;49.590;11.030;2022-12-05T04:43:53;25.00;;;13.90;;
20397;SDS011;10358;49.590;11.030;2022-12-05T04:46:22;21.83;;;13.03;;
20397;SDS011;10358;49.590;11.030;2022-12-05T04:48:49;24.00;;;13.90;;
20397;SDS011;10358;49.590;11.030;2022-12-05T04:51:23;22.77;;;13.43;;
20397;SDS011;10358;49.590;11.030;2022-12-05T04:53:52;22.50;;;13.13;;
20397;SDS011;10358;49.590;11.030;2022-12-05T04:56:20;25.00;;;13.70;;
20397;SDS011;10358;49.590;11.030;2022-12-05T04:58:48;23.20;;;13.17;;
20397;SDS011;10358;49.590;11.030;2022-12-05T05:03:50;19.57;;;11.53;;
20397;SDS011;10358;49.590;11.030;2022-12-05T05:06:22;20.77;;;11.60;;
20397;SDS011;10358;49.590;11.030;2022-12-05T05:08:55;18.33;;;10.80;;
20397;SDS011;10358;49.590;11.030;2022-12-05T05:13:48;17.10;;;10.53;;
20397;SDS011;10358;49.590;11.030;2022-12-05T05:16:19;17.50;;;9.80;;
20397;SDS011;10358;49.590;11.030;2022-12-05T05:18:52;18.30;;;9.40;;
20397;SDS011;10358;49.590;11.030;2022-12-05T05:21:20;15.53;;;8.73;;
20397;SDS011;10358;49.590;11.030;2022-12-05T05:23:48;15.93;;;9.10;;
20397;SDS011;10358;49.590;11.030;2022-12-05T05:26:14;13.90;;;8.97;;
20397;SDS011;10358;49.590;11.030;2022-12-05T05:28:41;16.10;;;9.57;;
20397;SDS011;10358;49.590;11.030;2022-12-05T05:31:07;14.37;;;8.53;;
20397;SDS011;10358;49.590;11.030;2022-12-05T05:33:34;12.43;;;7.73;;
20397;SDS011;10358;49.590;11.030;2022-12-05T05:36:03;15.47;;;8.13;;
20397;SDS011;10358;49.590;11.030;2022-12-05T05:38:30;14.33;;;7.57;;
20397;SDS011;10358;49.590;11.030;2022-12-05T05:41:00;13.50;;;7.83;;
20397;SDS011;10358;49.590;11.030;2022-12-05T05:43:25;12.93;;;7.73;;
20397;SDS011;10358;49.590;11.030;2022-12-05T05:45:51;10.83;;;6.77;;
20397;SDS011;10358;49.590;11.030;2022-12-05T05:48:17;10.50;;;6.30;;
20397;SDS011;10358;49.590;11.030;2022-12-05T05:50:42;11.07;;;6.43;;
20397;SDS011;10358;49.590;11.030;2022-12-05T05:53:08;11.67;;;6.40;;
20397;SDS011;10358;49.590;11.030;2022-12-05T05:55:33;12.63;;;6.80;;
20397;SDS011;10358;49.590;11.030;2022-12-05T05:57:59;12.40;;;6.97;;
20397;SDS011;10358;49.590;11.030;2022-12-05T06:00:24;11.93;;;6.27;;
20397;SDS011;10358;49.590;11.030;2022-12-05T06:02:50;9.47;;;5.97;;
20397;SDS011;10358;49.590;11.030;2022-12-05T06:05:15;12.03;;;6.20;;
20397;SDS011;10358;49.590;11.030;2022-12-05T06:07:41;11.63;;;6.30;;
20397;SDS011;10358;49.590;11.030;2022-12-05T06:10:07;9.97;;;5.90;;
20397;SDS011;10358;49.590;11.030;2022-12-05T06:12:32;13.77;;;7.27;;
20397;SDS011;10358;49.590;11.030;2022-12-05T06:14:58;12.07;;;7.00;;
20397;SDS011;10358;49.590;11.030;2022-12-05T06:17:24;10.77;;;6.47;;
20397;SDS011;10358;49.590;11.030;2022-12-05T06:19:49;10.43;;;6.67;;
20397;SDS011;10358;49.590;11.030;2022-12-05T06:22:15;11.30;;;6.27;;
20397;SDS011;10358;49.590;11.030;2022-12-05T06:24:40;12.77;;;7.13;;
20397;SDS011;10358;49.590;11.030;2022-12-05T06:27:06;11.60;;;6.97;;
20397;SDS011;10358;49.590;11.030;2022-12-05T06:29:32;11.83;;;7.17;;
20397;SDS011;10358;49.590;11.030;2022-12-05T06:31:58;12.90;;;7.27;;
20397;SDS011;10358;49.590;11.030;2022-12-05T06:34:24;16.23;;;7.70;;
20397;SDS011;10358;49.590;11.030;2022-12-05T06:36:49;13.17;;;7.23;;
20397;SDS011;10358;49.590;11.030;2022-12-05T06:39:15;14.43;;;8.07;;
20397;SDS011;10358;49.590;11.030;2022-12-05T06:41:40;12.47;;;7.47;;
20397;SDS011;10358;49.590;11.030;2022-12-05T06:44:06;15.93;;;7.93;;
20397;SDS011;10358;49.590;11.030;2022-12-05T06:46:31;15.70;;;8.83;;
20397;SDS011;10358;49.590;11.030;2022-12-05T06:48:57;16.03;;;8.90;;
20397;SDS011;10358;49.590;11.030;2022-12-05T06:51:23;18.80;;;9.27;;
20397;SDS011;10358;49.590;11.030;2022-12-05T06:53:49;16.13;;;8.77;;
20397;SDS011;10358;49.590;11.030;2022-12-05T06:56:16;17.40;;;8.87;;
20397;SDS011;10358;49.590;11.030;2022-12-05T06:58:44;17.77;;;9.23;;
20397;SDS011;10358;49.590;11.030;2022-12-05T07:01:12;17.80;;;9.20;;
20397;SDS011;10358;49.590;11.030;2022-12-05T07:03:58;18.47;;;9.77;;
20397;SDS011;10358;49.590;11.030;2022-12-05T07:06:24;20.53;;;10.60;;
20397;SDS011;10358;49.590;11.030;2022-12-05T07:08:50;20.43;;;10.27;;
20397;SDS011;10358;49.590;11.030;2022-12-05T07:11:16;21.67;;;10.87;;
20397;SDS011;10358;49.590;11.030;2022-12-05T07:13:41;21.30;;;10.80;;
20397;SDS011;10358;49.590;11.030;2022-12-05T07:16:07;22.77;;;11.17;;
20397;SDS011;10358;49.590;11.030;2022-12-05T07:18:33;24.67;;;11.23;;
20397;SDS011;10358;49.590;11.030;2022-12-05T07:21:00;20.93;;;10.97;;
20397;SDS011;10358;49.590;11.030;2022-12-05T07:23:26;23.67;;;11.50;;
20397;SDS011;10358;49.590;11.030;2022-12-05T07:25:53;24.03;;;11.73;;
20397;SDS011;10358;49.590;11.030;2022-12-05T07:28:19;21.47;;;11.17;;
20397;SDS011;10358;49.590;11.030;2022-12-05T07:30:45;23.83;;;11.40;;
20397;SDS011;10358;49.590;11.030;2022-12-05T07:33:11;20.20;;;11.07;;
20397;SDS011;10358;49.590;11.030;2022-12-05T07:35:36;27.83;;;11.73;;
20397;SDS011;10358;49.590;11.030;2022-12-05T07:38:02;21.53;;;10.90;;
20397;SDS011;10358;49.590;11.030;2022-12-05T07:40:27;25.73;;;12.00;;
20397;SDS011;10358;49.590;11.030;2022-12-05T07:42:54;27.47;;;13.43;;
20397;SDS011;10358;49.590;11.030;2022-12-05T07:45:20;30.43;;;13.97;;
20397;SDS011;10358;49.590;11.030;2022-12-05T07:47:46;28.77;;;12.83;;
20397;SDS011;10358;49.590;11.030;2022-12-05T07:50:11;28.47;;;12.80;;
20397;SDS011;10358;49.590;11.030;2022-12-05T07:52:38;28.33;;;13.57;;
20397;SDS011;10358;49.590;11.030;2022-12-05T07:55:03;30.17;;;12.47;;
20397;SDS011;10358;49.590;11.030;2022-12-05T07:57:30;29.97;;;13.43;;
20397;SDS011;10358;49.590;11.030;2022-12-05T07:59:55;27.77;;;13.13;;
20397;SDS011;10358;49.590;11.030;2022-12-05T08:02:21;28.47;;;13.53;;
20397;SDS011;10358;49.590;11.030;2022-12-05T08:04:47;28.23;;;13.87;;
20397;SDS011;10358;49.590;11.030;2022-12-05T08:07:12;27.80;;;13.20;;
20397;SDS011;10358;49.590;11.030;2022-12-05T08:09:38;28.50;;;12.90;;
20397;SDS011;10358;49.590;11.030;2022-12-05T08:12:03;32.33;;;13.87;;
20397;SDS011;10358;49.590;11.030;2022-12-05T08:14:29;29.33;;;14.10;;
20397;SDS011;10358;49.590;11.030;2022-12-05T08:16:55;29.43;;;13.57;;
20397;SDS011;10358;49.590;11.030;2022-12-05T08:19:21;29.17;;;13.70;;
20397;SDS011;10358;49.590;11.030;2022-12-05T08:21:46;27.97;;;12.90;;
20397;SDS011;10358;49.590;11.030;2022-12-05T08:24:12;26.37;;;12.93;;
20397;SDS011;10358;49.590;11.030;2022-12-05T08:26:38;28.77;;;13.73;;
20397;SDS011;10358;49.590;11.030;2022-12-05T08:29:05;28.53;;;13.30;;
20397;SDS011;10358;49.590;11.030;2022-12-05T08:31:34;28.40;;;12.57;;
20397;SDS011;10358;49.590;11.030;2022-12-05T08:34:03;26.30;;;13.60;;
20397;SDS011;10358;49.590;11.030;2022-12-05T08:36:30;32.13;;;13.27;;
20397;SDS011;10358;49.590;11.030;2022-12-05T08:38:56;29.77;;;13.80;;
20397;SDS011;10358;49.590;11.030;2022-12-05T08:41:27;29.03;;;13.40;;
20397;SDS011;10358;49.590;11.030;2022-12-05T08:43:57;29.97;;;13.33;;
20397;SDS011;10358;49.590;11.030;2022-12-05T08:46:29;30.20;;;12.93;;
20397;SDS011;10358;49.590;11.030;2022-12-05T08:48:56;28.73;;;13.03;;
20397;SDS011;10358;49.590;11.030;2022-12-05T08:51:21;26.27;;;12.97;;
20397;SDS011;10358;49.590;11.030;2022-12-05T08:53:47;26.73;;;13.03;;
20397;SDS011;10358;49.590;11.030;2022-12-05T08:56:12;28.63;;;13.03;;
20397;SDS011;10358;49.590;11.030;2022-12-05T08:58:39;28.90;;;13.00;;
20397;SDS011;10358;49.590;11.030;2022-12-05T09:01:05;28.13;;;12.83;;
20397;SDS011;10358;49.590;11.030;2022-12-05T09:03:32;24.77;;;12.50;;
20397;SDS011;10358;49.590;11.030;2022-12-05T09:06:09;31.20;;;13.73;;
20397;SDS011;10358;49.590;11.030;2022-12-05T09:08:45;26.70;;;12.63;;
20397;SDS011;10358;49.590;11.030;2022-12-05T09:11:12;30.03;;;13.10;;
20397;SDS011;10358;49.590;11.030;2022-12-05T09:13:39;27.03;;;13.40;;
20397;SDS011;10358;49.590;11.030;2022-12-05T09:18:35;26.70;;;12.63;;
20397;SDS011;10358;49.590;11.030;2022-12-05T09:21:05;27.27;;;13.47;;
20397;SDS011;10358;49.590;11.030;2022-12-05T09:23:35;28.70;;;13.03;;
20397;SDS011;10358;49.590;11.030;2022-12-05T09:26:01;24.97;;;12.77;;
20397;SDS011;10358;49.590;11.030;2022-12-05T09:28:29;26.87;;;12.77;;
20397;SDS011;10358;49.590;11.030;2022-12-05T09:30:59;27.17;;;13.07;;
20397;SDS011;10358;49.590;11.030;2022-12-05T09:33:27;28.30;;;12.70;;
20397;SDS011;10358;49.590;11.030;2022-12-05T09:35:54;27.17;;;13.63;;
20397;SDS011;10358;49.590;11.030;2022-12-05T09:38:19;29.83;;;12.77;;
20397;SDS011;10358;49.590;11.030;2022-12-05T09:40:45;27.00;;;12.30;;
20397;SDS011;10358;49.590;11.030;2022-12-05T09:43:21;24.37;;;12.37;;
20397;SDS011;10358;49.590;11.030;2022-12-05T09:45:59;26.27;;;12.10;;
20397;SDS011;10358;49.590;11.030;2022-12-05T09:48:33;27.23;;;12.57;;
20397;SDS011;10358;49.590;11.030;2022-12-05T09:50:59;25.03;;;12.33;;
20397;SDS011;10358;49.590;11.030;2022-12-05T09:53:27;28.47;;;12.77;;
20397;SDS011;10358;49.590;11.030;2022-12-05T09:56:01;28.50;;;12.83;;
20397;SDS011;10358;49.590;11.030;2022-12-05T10:01:01;26.63;;;13.30;;
20397;SDS011;10358;49.590;11.030;2022-12-05T10:03:49;24.53;;;12.03;;
20397;SDS011;10358;49.590;11.030;2022-12-05T10:09:29;26.53;;;12.53;;
20397;SDS011;10358;49.590;11.030;2022-12-05T10:17:40;24.27;;;12.07;;
20397;SDS011;10358;49.590;11.030;2022-12-05T10:20:12;24.17;;;12.13;;
20397;SDS011;10358;49.590;11.030;2022-12-05T10:22:43;26.00;;;11.93;;
20397;SDS011;10358;49.590;11.030;2022-12-05T10:25:19;22.13;;;11.90;;
20397;SDS011;10358;49.590;11.030;2022-12-05T10:27:53;22.50;;;11.63;;
20397;SDS011;10358;49.590;11.030;2022-12-05T10:30:30;23.37;;;11.90;;
20397;SDS011;10358;49.590;11.030;2022-12-05T10:33:03;24.77;;;12.50;;
20397;SDS011;10358;49.590;11.030;2022-12-05T10:35:39;23.27;;;12.23;;
20397;SDS011;10358;49.590;11.030;2022-12-05T10:38:08;25.23;;;12.63;;
20397;SDS011;10358;49.590;11.030;2022-12-05T10:40:39;24.60;;;12.43;;
20397;SDS011;10358;49.590;11.030;2022-12-05T10:43:09;29.00;;;12.90;;
20397;SDS011;10358;49.590;11.030;2022-12-05T10:45:41;25.30;;;11.60;;
20397;SDS011;10358;49.590;11.030;2022-12-05T10:48:10;26.73;;;13.23;;
20397;SDS011;10358;49.590;11.030;2022-12-05T10:50:37;27.37;;;12.40;;
20397;SDS011;10358;49.590;11.030;2022-12-05T10:53:04;23.03;;;12.17;;
20397;SDS011;10358;49.590;11.030;2022-12-05T10:55:40;22.50;;;12.70;;
20397;SDS011;10358;49.590;11.030;2022-12-05T10:58:12;24.37;;;12.47;;
20397;SDS011;10358;49.590;11.030;2022-12-05T11:00:40;26.43;;;12.73;;
20397;SDS011;10358;49.590;11.030;2022-12-05T11:05:59;25.30;;;13.17;;
20397;SDS011;10358;49.590;11.030;2022-12-05T11:08:30;24.97;;;12.77;;
20397;SDS011;10358;49.590;11.030;2022-12-05T11:11:04;23.13;;;12.40;;
20397;SDS011;10358;49.590;11.030;2022-12-05T11:13:32;25.17;;;12.73;;
20397;SDS011;10358;49.590;11.030;2022-12-05T11:15:59;27.77;;;12.80;;
20397;SDS011;10358;49.590;11.030;2022-12-05T11:18:31;24.30;;;12.53;;
20397;SDS011;10358;49.590;11.030;2022-12-05T11:21:16;26.33;;;12.17;;
20397;SDS011;10358;49.590;11.030;2022-12-05T11:23:44;26.77;;;13.23;;
20397;SDS011;10358;49.590;11.030;2022-12-05T11:26:52;25.67;;;12.60;;
20397;SDS011;10358;49.590;11.030;2022-12-05T11:29:01;26.27;;;12.97;;
20397;SDS011;10358;49.590;11.030;2022-12-05T11:31:29;25.97;;;12.73;;
20397;SDS011;10358;49.590;11.030;2022-12-05T11:36:40;24.50;;;12.43;;
20397;SDS011;10358;49.590;11.030;2022-12-05T11:39:26;25.57;;;13.40;;
20397;SDS011;10358;49.590;11.030;2022-12-05T11:42:13;27.60;;;13.47;;
20397;SDS011;10358;49.590;11.030;2022-12-05T11:44:54;26.53;;;12.67;;
20397;SDS011;10358;49.590;11.030;2022-12-05T11:51:11;22.37;;;12.27;;
20397;SDS011;10358;49.590;11.030;2022-12-05T11:54:07;27.70;;;13.70;;
20397;SDS011;10358;49.590;11.030;2022-12-05T11:56:54;25.13;;;13.37;;
20397;SDS011;10358;49.590;11.030;2022-12-05T12:08:00;27.13;;;13.57;;
20397;SDS011;10358;49.590;11.030;2022-12-05T12:13:26;24.83;;;13.37;;
20397;SDS011;10358;49.590;11.030;2022-12-05T12:16:04;28.63;;;13.90;;
20397;SDS011;10358;49.590;11.030;2022-12-05T12:26:59;26.50;;;13.70;;
20397;SDS011;10358;49.590;11.030;2022-12-05T12:29:35;28.37;;;13.43;;
20397;SDS011;10358;49.590;11.030;2022-12-05T12:32:30;33.03;;;14.00;;
20397;SDS011;10358;49.590;11.030;2022-12-05T12:40:48;25.47;;;13.13;;
20397;SDS011;10358;49.590;11.030;2022-12-05T12:46:36;27.07;;;13.03;;
20397;SDS011;10358;49.590;11.030;2022-12-05T12:51:52;27.03;;;13.33;;
20397;SDS011;10358;49.590;11.030;2022-12-05T12:57:17;26.47;;;13.27;;
20397;SDS011;10358;49.590;11.030;2022-12-05T13:04:46;23.67;;;12.20;;
20397;SDS011;10358;49.590;11.030;2022-12-05T13:09:47;20.67;;;10.97;;
20397;SDS011;10358;49.590;11.030;2022-12-05T13:12:16;22.83;;;12.30;;
20397;SDS011;10358;49.590;11.030;2022-12-05T13:14:58;21.97;;;11.87;;
20397;SDS011;10358;49.590;11.030;2022-12-05T13:17:28;23.63;;;11.97;;
20397;SDS011;10358;49.590;11.030;2022-12-05T13:19:56;22.73;;;12.33;;
20397;SDS011;10358;49.590;11.030;2022-12-05T13:22:23;21.43;;;11.20;;
20397;SDS011;10358;49.590;11.030;2022-12-05T13:24:51;24.27;;;12.43;;
20397;SDS011;10358;49.590;11.030;2022-12-05T13:27:18;24.87;;;11.90;;
20397;SDS011;10358;49.590;11.030;2022-12-05T13:29:59;24.03;;;11.87;;
20397;SDS011;10358;49.590;11.030;2022-12-05T13:32:28;22.07;;;12.70;;
20397;SDS011;10358;49.590;11.030;2022-12-05T13:35:18;23.80;;;11.60;;
20397;SDS011;10358;49.590;11.030;2022-12-05T13:38:03;21.97;;;11.90;;
20397;SDS011;10358;49.590;11.030;2022-12-05T13:40:51;21.30;;;11.90;;
20397;SDS011;10358;49.590;11.030;2022-12-05T13:43:40;23.63;;;11.80;;
20397;SDS011;10358;49.590;11.030;2022-12-05T13:46:10;20.83;;;10.77;;
20397;SDS011;10358;49.590;11.030;2022-12-05T13:48:43;22.47;;;11.40;;
20397;SDS011;10358;49.590;11.030;2022-12-05T13:51:19;22.37;;;12.43;;
20397;SDS011;10358;49.590;11.030;2022-12-05T13:53:58;22.40;;;11.87;;
20397;SDS011;10358;49.590;11.030;2022-12-05T14:07:39;24.03;;;11.30;;
20397;SDS011;10358;49.590;11.030;2022-12-05T14:12:59;20.50;;;11.83;;
20397;SDS011;10358;49.590;11.030;2022-12-05T14:18:17;20.90;;;11.37;;
20397;SDS011;10358;49.590;11.030;2022-12-05T14:21:07;23.30;;;11.00;;
20397;SDS011;10358;49.590;11.030;2022-12-05T14:26:16;18.73;;;10.67;;
20397;SDS011;10358;49.590;11.030;2022-12-05T14:40:36;18.17;;;10.47;;
20397;SDS011;10358;49.590;11.030;2022-12-05T14:43:16;18.47;;;10.50;;
20397;SDS011;10358;49.590;11.030;2022-12-05T14:50:45;20.77;;;10.77;;
20397;SDS011;10358;49.590;11.030;2022-12-05T14:53:26;22.67;;;10.57;;
20397;SDS011;10358;49.590;11.030;2022-12-05T15:01:12;22.37;;;11.73;;
20397;SDS011;10358;49.590;11.030;2022-12-05T15:06:24;22.17;;;12.17;;
20397;SDS011;10358;49.590;11.030;2022-12-05T15:08:53;27.47;;;12.70;;
20397;SDS011;10358;49.590;11.030;2022-12-05T15:11:22;23.73;;;12.90;;
20397;SDS011;10358;49.590;11.030;2022-12-05T15:16:34;24.97;;;12.47;;
20397;SDS011;10358;49.590;11.030;2022-12-05T15:19:06;23.77;;;13.50;;
20397;SDS011;10358;49.590;11.030;2022-12-05T15:21:39;21.77;;;11.63;;
20397;SDS011;10358;49.590;11.030;2022-12-05T15:24:18;22.10;;;11.97;;
20397;SDS011;10358;49.590;11.030;2022-12-05T15:26:48;22.87;;;11.53;;
20397;SDS011;10358;49.590;11.030;2022-12-05T15:31:49;23.90;;;12.20;;
20397;SDS011;10358;49.590;11.030;2022-12-05T15:34:18;23.90;;;11.87;;
20397;SDS011;10358;49.590;11.030;2022-12-05T15:37:08;22.67;;;11.70;;
20397;SDS011;10358;49.590;11.030;2022-12-05T15:39:51;22.80;;;12.37;;
20397;SDS011;10358;49.590;11.030;2022-12-05T15:42:26;20.67;;;11.00;;
20397;SDS011;10358;49.590;11.030;2022-12-05T15:47:37;19.87;;;10.83;;
20397;SDS011;10358;49.590;11.030;2022-12-05T15:52:48;21.30;;;11.27;;
20397;SDS011;10358;49.590;11.030;2022-12-05T15:58:05;25.37;;;11.83;;
20397;SDS011;10358;49.590;11.030;2022-12-05T16:01:21;22.37;;;11.10;;
20397;SDS011;10358;49.590;11.030;2022-12-05T16:06:46;20.07;;;11.03;;
20397;SDS011;10358;49.590;11.030;2022-12-05T16:09:19;20.47;;;10.63;;
20397;SDS011;10358;49.590;11.030;2022-12-05T16:11:59;19.80;;;10.97;;
20397;SDS011;10358;49.590;11.030;2022-12-05T16:14:31;22.47;;;11.13;;
20397;SDS011;10358;49.590;11.030;2022-12-05T16:17:03;23.17;;;11.27;;
20397;SDS011;10358;49.590;11.030;2022-12-05T16:19:30;18.90;;;10.03;;
20397;SDS011;10358;49.590;11.030;2022-12-05T16:22:16;18.73;;;9.47;;
20397;SDS011;10358;49.590;11.030;2022-12-05T16:24:46;17.17;;;9.80;;
20397;SDS011;10358;49.590;11.030;2022-12-05T16:30:12;18.90;;;10.00;;
20397;SDS011;10358;49.590;11.030;2022-12-05T16:32:45;18.07;;;10.07;;
20397;SDS011;10358;49.590;11.030;2022-12-05T16:46:41;15.67;;;9.57;;
20397;SDS011;10358;49.590;11.030;2022-12-05T16:48:42;15.97;;;9.00;;
20397;SDS011;10358;49.590;11.030;2022-12-05T16:53:37;12.23;;;7.43;;
20397;SDS011;10358;49.590;11.030;2022-12-05T16:56:23;13.87;;;7.77;;
20397;SDS011;10358;49.590;11.030;2022-12-05T16:58:51;13.10;;;7.10;;
20397;SDS011;10358;49.590;11.030;2022-12-05T17:01:18;11.00;;;6.73;;
20397;SDS011;10358;49.590;11.030;2022-12-05T17:03:45;13.17;;;7.97;;
20397;SDS011;10358;49.590;11.030;2022-12-05T17:06:11;15.13;;;8.23;;
20397;SDS011;10358;49.590;11.030;2022-12-05T17:08:37;15.97;;;10.67;;
20397;SDS011;10358;49.590;11.030;2022-12-05T17:11:03;14.03;;;8.30;;
20397;SDS011;10358;49.590;11.030;2022-12-05T17:13:31;10.70;;;6.83;;
20397;SDS011;10358;49.590;11.030;2022-12-05T17:15:57;16.10;;;9.23;;
20397;SDS011;10358;49.590;11.030;2022-12-05T17:18:23;14.97;;;8.67;;
20397;SDS011;10358;49.590;11.030;2022-12-05T17:20:52;18.80;;;10.67;;
20397;SDS011;10358;49.590;11.030;2022-12-05T17:23:19;17.47;;;10.37;;
20397;SDS011;10358;49.590;11.030;2022-12-05T17:25:47;16.07;;;8.67;;
20397;SDS011;10358;49.590;11.030;2022-12-05T17:28:14;14.87;;;8.93;;